createdAt,value
2019-02-21T00:01:40.930Z,5.69
2019-02-21T00:04:18.284Z,5.65
2019-02-21T00:06:50.506Z,5.61
2019-02-21T00:09:22.320Z,5.51
2019-02-21T00:11:54.339Z,5.36
2019-02-21T00:14:26.390Z,5.37
2019-02-21T00:16:58.910Z,5.31
2019-02-21T00:19:31.026Z,5.24
2019-02-21T00:22:02.856Z,5.17
2019-02-21T00:24:34.572Z,5.08
2019-02-21T00:27:07.884Z,5.02
2019-02-21T00:29:39.597Z,4.94
2019-02-21T00:32:11.389Z,4.90
2019-02-21T00:34:43.372Z,4.80
2019-02-21T00:37:15.478Z,4.76
2019-02-21T00:39:47.546Z,4.69
2019-02-21T00:42:22.798Z,4.68
2019-02-21T00:44:54.899Z,4.66
2019-02-21T00:47:28.076Z,4.63
2019-02-21T00:50:00.330Z,4.64
2019-02-21T00:52:32.500Z,4.58
2019-02-21T00:55:04.588Z,4.62
2019-02-21T00:57:36.728Z,4.67
2019-02-21T01:00:11.444Z,4.66
2019-02-21T01:02:44.931Z,4.61
2019-02-21T01:05:17.080Z,4.56
2019-02-21T01:07:49.259Z,4.54
2019-02-21T01:10:21.199Z,4.61
2019-02-21T01:12:53.265Z,4.64
2019-02-21T01:15:25.022Z,4.66
2019-02-21T01:17:56.785Z,4.71
2019-02-21T01:20:30.151Z,4.73
2019-02-21T01:23:01.925Z,4.80
2019-02-21T01:25:33.710Z,4.75
2019-02-21T01:28:06.018Z,4.82
2019-02-21T01:30:37.877Z,4.80
2019-02-21T01:33:09.640Z,4.85
2019-02-21T01:35:42.556Z,4.83
2019-02-21T01:38:14.326Z,4.86
2019-02-21T01:40:46.079Z,4.89
2019-02-21T01:43:18.202Z,4.89
2019-02-21T01:45:50.014Z,4.89
2019-02-21T01:48:21.803Z,4.91
2019-02-21T01:50:53.768Z,4.99
2019-02-21T01:53:25.544Z,4.98
2019-02-21T01:55:57.363Z,4.96
2019-02-21T01:58:29.434Z,4.96
2019-02-21T02:01:08.458Z,4.94
2019-02-21T02:03:35.107Z,4.94
2019-02-21T02:06:07.175Z,4.92
2019-02-21T02:08:39.228Z,4.86
2019-02-21T02:11:11.147Z,4.87
2019-02-21T02:13:43.230Z,4.85
2019-02-21T02:16:14.946Z,4.91
2019-02-21T02:18:46.736Z,4.92
2019-02-21T02:21:19.765Z,4.96
2019-02-21T02:23:51.549Z,5.02
2019-02-21T02:26:23.281Z,5.04
2019-02-21T02:28:55.555Z,5.03
2019-02-21T02:31:27.381Z,5.01
2019-02-21T02:33:59.184Z,4.98
2019-02-21T02:36:30.913Z,4.99
2019-02-21T02:39:03.021Z,4.91
2019-02-21T02:41:36.418Z,4.83
2019-02-21T02:44:08.525Z,4.85
2019-02-21T02:46:40.262Z,4.82
2019-02-21T02:49:12.048Z,4.90
2019-02-21T02:51:43.796Z,4.98
2019-02-21T02:54:15.575Z,4.97
2019-02-21T02:56:47.436Z,5.04
2019-02-21T02:59:19.442Z,5.02
2019-02-21T03:01:51.192Z,4.99
2019-02-21T03:04:23.021Z,5.06
2019-02-21T03:06:55.123Z,5.12
2019-02-21T03:09:26.884Z,5.11
2019-02-21T03:11:58.768Z,5.15
2019-02-21T03:14:30.763Z,5.19
2019-02-21T03:17:02.518Z,5.22
2019-02-21T03:19:34.268Z,5.22
2019-02-21T03:22:06.057Z,5.24
2019-02-21T03:24:37.814Z,5.25
2019-02-21T03:27:09.611Z,5.17
2019-02-21T03:29:41.741Z,5.20
2019-02-21T03:32:13.614Z,5.26
2019-02-21T03:34:45.433Z,5.27
2019-02-21T03:37:17.240Z,5.24
2019-02-21T03:39:49.070Z,5.25
2019-02-21T03:42:21.019Z,5.19
2019-02-21T03:44:52.982Z,5.24
2019-02-21T03:47:24.842Z,5.22
2019-02-21T03:49:56.593Z,5.26
2019-02-21T03:52:28.337Z,5.24
2019-02-21T03:55:00.208Z,5.29
2019-02-21T03:57:32.212Z,5.33
2019-02-21T04:00:04.253Z,5.35
2019-02-21T04:02:36.170Z,5.31
2019-02-21T04:05:08.136Z,5.37
2019-02-21T04:07:39.999Z,5.34
2019-02-21T04:10:12.322Z,5.36
2019-02-21T04:12:44.086Z,5.37
2019-02-21T04:15:16.246Z,5.30
2019-02-21T04:17:47.981Z,5.35
2019-02-21T04:20:19.784Z,5.33
2019-02-21T04:22:51.592Z,5.30
2019-02-21T04:25:23.355Z,5.40
2019-02-21T04:27:55.104Z,5.41
2019-02-21T04:30:27.185Z,5.40
2019-02-21T04:32:59.042Z,5.42
2019-02-21T04:35:30.996Z,5.42
2019-02-21T04:38:02.835Z,5.38
2019-02-21T04:40:34.638Z,5.47
2019-02-21T04:43:06.461Z,5.34
2019-02-21T04:45:38.267Z,5.30
2019-02-21T04:48:10.108Z,5.26
2019-02-21T04:50:41.930Z,5.15
2019-02-21T04:53:13.738Z,5.18
2019-02-21T04:55:45.483Z,5.15
2019-02-21T04:58:17.295Z,5.19
2019-02-21T05:00:49.298Z,5.11
2019-02-21T05:03:21.038Z,5.15
2019-02-21T05:05:52.849Z,5.07
2019-02-21T05:08:25.758Z,5.09
2019-02-21T05:10:57.792Z,5.01
2019-02-21T05:13:29.544Z,5.05
2019-02-21T05:16:01.427Z,5.12
2019-02-21T05:18:33.292Z,5.14
2019-02-21T05:21:05.151Z,5.14
2019-02-21T05:23:36.983Z,5.10
2019-02-21T05:26:10.505Z,5.13
2019-02-21T05:28:42.280Z,5.12
2019-02-21T05:31:39.299Z,5.16
2019-02-21T05:34:28.520Z,5.16
2019-02-21T05:37:24.959Z,5.10
2019-02-21T05:40:21.362Z,5.08
2019-02-21T05:43:03.665Z,5.06
2019-02-21T05:45:57.083Z,5.05
2019-02-21T05:48:34.223Z,5.07
2019-02-21T05:51:15.547Z,5.11
2019-02-21T05:53:58.427Z,5.19
2019-02-21T05:56:56.748Z,5.18
2019-02-21T05:59:50.196Z,5.16
2019-02-21T06:02:33.987Z,5.19
2019-02-21T06:05:20.229Z,5.23
2019-02-21T06:07:58.467Z,5.27
2019-02-21T06:11:01.568Z,5.27
2019-02-21T06:14:04.457Z,5.19
2019-02-21T06:16:42.291Z,5.15
2019-02-21T06:19:35.935Z,5.20
2019-02-21T06:22:38.896Z,5.30
2019-02-21T06:25:29.920Z,5.32
2019-02-21T06:28:08.878Z,5.37
2019-02-21T06:30:44.560Z,5.38
2019-02-21T06:33:16.606Z,5.33
2019-02-21T06:35:48.420Z,5.25
2019-02-21T06:38:20.183Z,5.30
2019-02-21T06:40:52.006Z,5.31
2019-02-21T06:43:23.753Z,5.34
2019-02-21T06:45:57.901Z,5.39
2019-02-21T06:48:29.095Z,5.40
2019-02-21T06:51:01.080Z,5.43
2019-02-21T06:53:32.896Z,5.34
2019-02-21T06:56:04.706Z,5.38
2019-02-21T06:58:36.462Z,5.38
2019-02-21T07:01:08.267Z,5.48
2019-02-21T07:03:40.026Z,5.52
2019-02-21T07:06:12.044Z,5.60
2019-02-21T07:08:43.857Z,5.63
2019-02-21T07:11:15.920Z,5.52
2019-02-21T07:13:47.704Z,5.62
2019-02-21T07:16:19.488Z,5.66
2019-02-21T07:18:51.259Z,5.74
2019-02-21T07:21:23.280Z,5.75
2019-02-21T07:23:55.082Z,5.77
2019-02-21T07:26:26.887Z,5.71
2019-02-21T07:28:58.701Z,5.74
2019-02-21T07:31:32.500Z,5.79
2019-02-21T07:34:04.024Z,5.69
2019-02-21T07:36:35.995Z,5.72
2019-02-21T07:39:16.853Z,5.78
2019-02-21T07:41:41.872Z,5.79
2019-02-21T07:44:13.671Z,5.80
2019-02-21T07:46:46.367Z,5.77
2019-02-21T07:49:18.405Z,5.78
2019-02-21T07:51:50.432Z,5.75
2019-02-21T07:54:22.280Z,5.93
2019-02-21T07:56:54.103Z,5.94
2019-02-21T07:59:25.836Z,5.80
2019-02-21T08:01:57.598Z,5.94
2019-02-21T08:04:29.385Z,5.75
2019-02-21T08:07:01.302Z,5.82
2019-02-21T08:09:33.107Z,5.87
2019-02-21T08:12:05.601Z,5.92
2019-02-21T08:14:37.413Z,5.80
2019-02-21T08:17:09.198Z,6.05
2019-02-21T08:19:40.994Z,5.94
2019-02-21T08:22:12.917Z,6.12
2019-02-21T08:24:44.663Z,6.06
2019-02-21T08:27:16.410Z,6.12
2019-02-21T08:29:48.192Z,6.06
2019-02-21T08:32:23.175Z,6.04
2019-02-21T08:34:55.279Z,6.14
2019-02-21T08:37:27.385Z,6.11
2019-02-21T08:39:59.206Z,6.26
2019-02-21T08:42:30.993Z,6.24
2019-02-21T08:45:02.747Z,6.28
2019-02-21T08:47:34.667Z,6.22
2019-02-21T08:50:06.483Z,6.29
2019-02-21T08:52:38.824Z,6.30
2019-02-21T08:55:10.714Z,6.36
2019-02-21T08:57:42.594Z,6.24
2019-02-21T09:00:14.786Z,6.26
2019-02-21T09:02:47.131Z,6.33
2019-02-21T09:05:19.492Z,6.30
2019-02-21T09:07:51.848Z,6.34
2019-02-21T09:10:23.687Z,6.23
2019-02-21T09:12:55.901Z,6.20
2019-02-21T09:15:27.956Z,6.17
2019-02-21T09:17:59.733Z,6.26
2019-02-21T09:20:33.082Z,6.27
2019-02-21T09:23:05.115Z,6.30
2019-02-21T09:25:36.963Z,6.11
2019-02-21T09:28:08.729Z,6.26
2019-02-21T09:30:40.483Z,6.23
2019-02-21T09:33:17.415Z,6.26
2019-02-21T09:35:45.900Z,6.38
2019-02-21T09:38:18.009Z,6.51
2019-02-21T09:40:49.784Z,6.45
2019-02-21T09:43:21.614Z,6.39
2019-02-21T09:45:53.351Z,6.53
2019-02-21T09:48:25.144Z,6.39
2019-02-21T09:50:56.890Z,6.58
2019-02-21T09:53:29.031Z,6.48
2019-02-21T09:56:00.838Z,6.58
2019-02-21T09:58:32.836Z,6.57
2019-02-21T10:01:04.589Z,6.48
2019-02-21T10:03:36.377Z,6.45
2019-02-21T10:06:08.506Z,6.49
2019-02-21T10:08:40.777Z,6.48
2019-02-21T10:11:12.561Z,6.51
2019-02-21T10:13:44.400Z,6.64
2019-02-21T10:16:16.180Z,6.65
2019-02-21T10:18:47.979Z,6.53
2019-02-21T10:21:19.881Z,6.67
2019-02-21T10:23:51.694Z,6.63
2019-02-21T10:26:23.474Z,6.51
2019-02-21T10:28:55.273Z,6.47
2019-02-21T10:31:27.034Z,6.43
2019-02-21T10:33:58.859Z,6.52
2019-02-21T10:36:30.943Z,6.58
2019-02-21T10:39:03.004Z,6.69
2019-02-21T10:41:36.431Z,6.85
2019-02-21T10:44:08.199Z,6.86
2019-02-21T10:46:39.952Z,6.79
2019-02-21T10:49:11.758Z,6.93
2019-02-21T10:51:43.637Z,6.99
2019-02-21T10:54:15.450Z,7.13
2019-02-21T10:56:47.223Z,7.20
2019-02-21T10:59:18.973Z,7.20
2019-02-21T11:01:50.742Z,7.28
2019-02-21T11:04:25.303Z,7.23
2019-02-21T11:06:57.045Z,7.30
2019-02-21T11:09:29.482Z,7.17
2019-02-21T11:12:01.214Z,7.16
2019-02-21T11:14:33.223Z,7.15
2019-02-21T11:17:04.970Z,6.97
2019-02-21T11:19:36.758Z,7.06
2019-02-21T11:22:08.536Z,7.02
2019-02-21T11:24:40.588Z,7.07
2019-02-21T11:27:12.384Z,7.08
2019-02-21T11:29:44.136Z,7.13
2019-02-21T11:32:18.417Z,7.03
2019-02-21T11:34:50.165Z,7.05
2019-02-21T11:37:21.988Z,7.08
2019-02-21T11:39:54.035Z,6.97
2019-02-21T11:42:25.845Z,6.92
2019-02-21T11:44:57.683Z,6.91
2019-02-21T11:47:30.751Z,6.98
2019-02-21T11:50:02.536Z,6.97
2019-02-21T11:52:34.386Z,6.87
2019-02-21T11:55:07.183Z,6.77
2019-02-21T11:57:38.961Z,6.77
2019-02-21T12:00:15.854Z,6.77
2019-02-21T12:02:47.604Z,6.81
2019-02-21T12:05:30.193Z,6.79
2019-02-21T12:07:52.979Z,6.74
2019-02-21T12:10:26.988Z,6.76
2019-02-21T12:12:58.470Z,6.81
2019-02-21T12:15:30.282Z,6.76
2019-02-21T12:18:02.046Z,6.79
2019-02-21T12:20:33.862Z,6.84
2019-02-21T12:23:05.666Z,6.71
2019-02-21T12:25:39.049Z,6.74
2019-02-21T12:28:10.785Z,6.80
2019-02-21T12:30:42.547Z,6.71
2019-02-21T12:33:14.296Z,6.72
2019-02-21T12:35:46.166Z,6.84
2019-02-21T12:38:18.314Z,6.94
2019-02-21T12:40:50.107Z,6.78
2019-02-21T12:43:21.878Z,6.70
2019-02-21T12:45:59.753Z,6.79
2019-02-21T12:48:32.633Z,6.88
2019-02-21T12:51:05.614Z,6.87
2019-02-21T12:53:41.916Z,6.97
2019-02-21T12:56:13.688Z,6.99
2019-02-21T12:58:45.460Z,7.10
2019-02-21T13:01:17.273Z,7.18
2019-02-21T13:03:49.003Z,7.13
2019-02-21T13:06:20.794Z,7.02
2019-02-21T13:08:52.565Z,7.06
2019-02-21T13:11:26.465Z,6.95
2019-02-21T13:14:01.217Z,6.94
2019-02-21T13:16:33.007Z,6.98
2019-02-21T13:19:04.742Z,6.79
2019-02-21T13:21:36.559Z,6.83
2019-02-21T13:24:09.806Z,6.83
2019-02-21T13:26:41.812Z,6.75
2019-02-21T13:29:13.589Z,6.77
2019-02-21T13:31:45.384Z,6.71
2019-02-21T13:34:17.150Z,6.74
2019-02-21T13:36:48.927Z,6.69
2019-02-21T13:39:25.839Z,6.79
2019-02-21T13:41:57.591Z,6.68
2019-02-21T13:44:29.351Z,6.71
2019-02-21T13:47:01.128Z,6.57
2019-02-21T13:49:34.164Z,6.40
2019-02-21T13:52:05.911Z,6.36
2019-02-21T13:54:37.672Z,6.31
2019-02-21T13:57:09.818Z,6.36
2019-02-21T13:59:41.743Z,6.45
2019-02-21T14:02:15.330Z,6.46
2019-02-21T14:04:47.018Z,6.53
2019-02-21T14:07:19.025Z,6.63
2019-02-21T14:09:50.786Z,6.60
2019-02-21T14:12:22.936Z,6.57
2019-02-21T14:14:54.675Z,6.46
2019-02-21T14:17:26.541Z,6.45
2019-02-21T14:19:58.391Z,6.41
2019-02-21T14:22:30.195Z,6.33
2019-02-21T14:25:01.939Z,6.44
2019-02-21T14:27:34.108Z,6.27
2019-02-21T14:30:06.726Z,6.23
2019-02-21T14:32:38.573Z,6.27
2019-02-21T14:35:12.533Z,6.36
2019-02-21T14:37:44.332Z,6.32
2019-02-21T14:40:17.776Z,6.33
2019-02-21T14:42:49.857Z,6.33
2019-02-21T14:45:21.680Z,6.33
2019-02-21T14:47:53.481Z,6.23
2019-02-21T14:50:26.323Z,6.28
2019-02-21T14:52:58.130Z,6.40
2019-02-21T14:55:30.264Z,6.31
2019-02-21T14:58:02.591Z,6.14
2019-02-21T15:00:34.466Z,6.29
2019-02-21T15:03:06.378Z,6.36
2019-02-21T15:05:38.258Z,6.39
2019-02-21T15:08:10.119Z,6.35
2019-02-21T15:10:41.981Z,6.28
2019-02-21T15:13:15.425Z,6.14
2019-02-21T15:15:47.242Z,6.06
2019-02-21T15:18:21.472Z,6.09
2019-02-21T15:20:53.346Z,6.14
2019-02-21T15:23:25.140Z,6.12
2019-02-21T15:25:56.944Z,6.20
2019-02-21T15:28:29.002Z,6.21
2019-02-21T15:31:00.774Z,6.18
2019-02-21T15:33:32.605Z,6.21
2019-02-21T15:36:04.427Z,6.13
2019-02-21T15:38:36.412Z,6.21
2019-02-21T15:41:08.347Z,6.24
2019-02-21T15:43:40.120Z,6.33
2019-02-21T15:46:11.975Z,6.28
2019-02-21T15:48:46.472Z,6.30
2019-02-21T15:51:18.554Z,6.34
2019-02-21T15:53:50.320Z,6.33
2019-02-21T15:56:22.070Z,6.35
2019-02-21T15:58:53.887Z,6.33
2019-02-21T16:01:26.842Z,6.41
2019-02-21T16:03:58.842Z,6.29
2019-02-21T16:06:30.626Z,6.30
2019-02-21T16:09:02.909Z,6.34
2019-02-21T16:11:36.356Z,6.26
2019-02-21T16:14:08.118Z,6.27
2019-02-21T16:16:40.035Z,6.21
2019-02-21T16:19:12.074Z,6.29
2019-02-21T16:21:43.849Z,6.24
2019-02-21T16:24:15.646Z,6.25
2019-02-21T16:26:47.428Z,6.31
2019-02-21T16:29:19.297Z,6.39
2019-02-21T16:31:51.082Z,6.38
2019-02-21T16:34:22.866Z,6.32
2019-02-21T16:37:02.089Z,6.36
2019-02-21T16:39:28.159Z,6.47
2019-02-21T16:42:00.277Z,6.47
2019-02-21T16:44:32.389Z,6.46
2019-02-21T16:47:05.712Z,6.50
2019-02-21T16:49:38.882Z,6.44
2019-02-21T16:52:10.690Z,6.50
2019-02-21T16:54:42.503Z,6.44
2019-02-21T16:57:15.394Z,6.47
2019-02-21T16:59:47.380Z,6.54
2019-02-21T17:02:19.131Z,6.56
2019-02-21T17:04:50.857Z,6.56
2019-02-21T17:07:22.653Z,6.61
2019-02-21T17:09:54.436Z,6.62
2019-02-21T17:12:26.243Z,6.63
2019-02-21T17:14:58.315Z,6.64
2019-02-21T17:17:30.404Z,6.63
2019-02-21T17:20:02.323Z,6.64
2019-02-21T17:22:34.461Z,6.65
2019-02-21T17:25:06.788Z,6.67
2019-02-21T17:27:38.694Z,6.70
2019-02-21T17:30:14.486Z,6.71
2019-02-21T17:32:46.929Z,6.67
2019-02-21T17:35:18.997Z,6.72
2019-02-21T17:37:50.772Z,6.71
2019-02-21T17:40:23.021Z,6.71
2019-02-21T17:42:55.150Z,6.71
2019-02-21T17:45:27.177Z,6.73
2019-02-21T17:47:59.276Z,6.73
2019-02-21T17:50:31.296Z,6.74
2019-02-21T17:53:03.174Z,6.74
2019-02-21T17:55:35.035Z,6.71
2019-02-21T17:58:06.889Z,6.77
2019-02-21T18:00:39.503Z,6.80
2019-02-21T18:03:14.031Z,6.78
2019-02-21T18:05:45.812Z,6.77
2019-02-21T18:08:17.671Z,6.72
2019-02-21T18:10:49.583Z,6.72
2019-02-21T18:13:21.432Z,6.59
2019-02-21T18:15:53.483Z,6.65
2019-02-21T18:18:25.295Z,6.71
2019-02-21T18:20:57.133Z,6.77
2019-02-21T18:23:29.012Z,6.86
2019-02-21T18:26:07.908Z,6.85
2019-02-21T18:28:39.732Z,6.83
2019-02-21T18:31:25.721Z,6.83
2019-02-21T18:33:57.510Z,6.87
2019-02-21T18:36:32.071Z,6.86
2019-02-21T18:39:05.136Z,6.79
2019-02-21T18:41:38.573Z,6.79
2019-02-21T18:44:12.115Z,6.72
2019-02-21T18:46:44.291Z,6.78
2019-02-21T18:49:16.197Z,6.80
2019-02-21T18:51:48.290Z,6.62
2019-02-21T18:54:20.945Z,6.76
2019-02-21T18:56:53.307Z,6.82
2019-02-21T18:59:31.699Z,6.80
2019-02-21T19:01:59.837Z,6.81
2019-02-21T19:04:33.501Z,6.71
2019-02-21T19:07:07.951Z,6.76
2019-02-21T19:09:40.527Z,6.80
2019-02-21T19:12:12.726Z,6.70
2019-02-21T19:14:45.635Z,6.71
2019-02-21T19:17:20.957Z,6.73
2019-02-21T19:19:53.514Z,6.65
2019-02-21T19:22:26.736Z,6.67
2019-02-21T19:25:00.336Z,6.62
2019-02-21T19:27:37.194Z,6.73
2019-02-21T19:30:25.609Z,6.76
2019-02-21T19:32:57.191Z,6.60
2019-02-21T19:35:29.592Z,6.67
2019-02-21T19:38:10.361Z,6.62
2019-02-21T19:40:37.786Z,6.72
2019-02-21T19:43:13.972Z,6.76
2019-02-21T19:45:48.793Z,6.73
2019-02-21T19:48:22.817Z,6.69
2019-02-21T19:50:56.195Z,6.69
2019-02-21T19:53:29.785Z,6.68
2019-02-21T19:56:02.970Z,6.68
2019-02-21T19:58:36.282Z,6.73
2019-02-21T20:01:12.901Z,6.66
2019-02-21T20:03:47.112Z,6.74
2019-02-21T20:06:21.874Z,6.80
2019-02-21T20:08:55.326Z,6.66
2019-02-21T20:11:28.841Z,6.58
2019-02-21T20:14:02.293Z,6.60
2019-02-21T20:16:35.704Z,6.64
2019-02-21T20:19:09.683Z,6.64
2019-02-21T20:21:43.175Z,6.57
2019-02-21T20:24:17.727Z,6.62
2019-02-21T20:26:51.531Z,6.64
2019-02-21T20:29:25.594Z,6.63
2019-02-21T20:31:59.034Z,6.69
2019-02-21T20:34:33.160Z,6.74
2019-02-21T20:37:06.712Z,6.76
2019-02-21T20:39:40.357Z,6.78
2019-02-21T20:42:13.746Z,6.78
2019-02-21T20:44:47.241Z,6.78
2019-02-21T20:47:21.197Z,6.80
2019-02-21T20:49:55.628Z,6.87
2019-02-21T20:52:28.941Z,6.90
2019-02-21T20:55:02.354Z,6.93
2019-02-21T20:57:38.687Z,6.98
2019-02-21T21:00:13.986Z,6.91
2019-02-21T21:02:49.784Z,6.67
2019-02-21T21:05:23.258Z,6.71
2019-02-21T21:07:56.632Z,6.46
2019-02-21T21:10:29.940Z,6.33
2019-02-21T21:13:02.962Z,6.34
2019-02-21T21:15:36.000Z,6.27
2019-02-21T21:18:09.118Z,6.20
2019-02-21T21:20:43.530Z,6.13
2019-02-21T21:23:16.335Z,6.12
2019-02-21T21:25:49.702Z,6.04
2019-02-21T21:28:22.246Z,5.90
2019-02-21T21:30:55.096Z,5.88
2019-02-21T21:33:28.119Z,5.77
2019-02-21T21:36:00.661Z,5.69
2019-02-21T21:38:33.137Z,5.57
2019-02-21T21:41:05.537Z,5.48
2019-02-21T21:43:38.133Z,5.20
2019-02-21T21:46:10.852Z,5.15
2019-02-21T21:48:43.235Z,5.08
2019-02-21T21:51:15.150Z,4.95
2019-02-21T21:53:46.965Z,4.71
2019-02-21T21:56:18.743Z,4.50
2019-02-21T21:58:50.541Z,4.56
2019-02-21T22:01:22.435Z,4.34
2019-02-21T22:03:54.306Z,3.75
2019-02-21T22:06:26.321Z,4.06
2019-02-21T22:09:04.822Z,3.76
2019-02-21T22:11:33.801Z,3.34
2019-02-21T22:14:06.006Z,2.73
2019-02-21T22:16:38.125Z,3.06
2019-02-21T22:19:10.296Z,2.86
2019-02-21T22:21:42.671Z,2.74
2019-02-21T22:24:14.741Z,2.76
2019-02-21T22:26:47.196Z,2.60
2019-02-21T22:29:19.361Z,2.03
2019-02-21T22:31:51.502Z,1.93
2019-02-21T22:34:23.633Z,2.15
2019-02-21T22:36:55.777Z,2.20
2019-02-21T22:39:27.919Z,2.02
2019-02-21T22:41:59.992Z,1.99
2019-02-21T22:44:32.415Z,2.17
2019-02-21T22:47:05.003Z,2.04
2019-02-21T22:49:37.405Z,1.91
2019-02-21T22:52:09.822Z,1.97
2019-02-21T22:54:41.927Z,1.84
2019-02-21T22:57:14.002Z,1.71
2019-02-21T22:59:46.183Z,1.58
2019-02-21T23:02:21.632Z,1.59
2019-02-21T23:05:38.385Z,1.59
2019-02-21T23:08:53.399Z,1.78
2019-02-21T23:11:26.212Z,1.61
2019-02-21T23:13:58.315Z,1.70
2019-02-21T23:16:30.571Z,1.72
2019-02-21T23:19:02.703Z,1.57
2019-02-21T23:21:37.578Z,1.69
2019-02-21T23:24:10.009Z,1.66
2019-02-21T23:26:44.466Z,1.65
2019-02-21T23:29:18.049Z,1.39
2019-02-21T23:31:50.267Z,1.31
2019-02-21T23:34:39.247Z,1.39
2019-02-21T23:37:11.372Z,1.29
2019-02-21T23:39:43.853Z,1.12
2019-02-21T23:42:15.942Z,1.15
2019-02-21T23:44:48.118Z,1.08
2019-02-21T23:47:20.167Z,0.99
2019-02-21T23:49:52.535Z,0.68
2019-02-21T23:52:24.680Z,0.80
2019-02-21T23:54:57.937Z,0.56
2019-02-21T23:57:30.450Z,0.70
